createdAt,value
2022-11-10T00:00:10.514Z,75.74
2022-11-10T00:02:37.160Z,75.09
2022-11-10T00:05:03.889Z,76.30
2022-11-10T00:07:30.530Z,76.73
2022-11-10T00:09:57.199Z,75.72
2022-11-10T00:12:23.993Z,75.74
2022-11-10T00:15:09.223Z,75.72
2022-11-10T00:17:36.534Z,75.69
2022-11-10T00:20:03.937Z,75.23
2022-11-10T00:22:30.710Z,75.14
2022-11-10T00:24:57.369Z,75.67
2022-11-10T00:27:24.018Z,75.03
2022-11-10T00:29:50.700Z,75.26
2022-11-10T00:32:17.312Z,74.96
2022-11-10T00:34:43.940Z,74.79
2022-11-10T00:37:10.643Z,74.62
2022-11-10T00:39:37.330Z,74.86
2022-11-10T00:42:04.312Z,74.71
2022-11-10T00:44:30.983Z,74.87
2022-11-10T00:46:57.630Z,74.39
2022-11-10T00:49:24.452Z,75.03
2022-11-10T00:51:51.290Z,75.33
2022-11-10T00:54:17.990Z,75.16
2022-11-10T00:56:44.688Z,74.88
2022-11-10T00:59:11.338Z,75.27
2022-11-10T01:01:38.111Z,74.89
2022-11-10T01:04:05.294Z,74.59
2022-11-10T01:06:32.007Z,74.68
2022-11-10T01:08:58.731Z,74.20
2022-11-10T01:11:27.255Z,74.50
2022-11-10T01:13:54.926Z,74.41
2022-11-10T01:16:22.962Z,74.38
2022-11-10T01:18:50.542Z,75.41
2022-11-10T01:21:17.662Z,75.05
2022-11-10T01:23:44.541Z,75.22
2022-11-10T01:26:11.464Z,74.85
2022-11-10T01:28:38.301Z,76.34
2022-11-10T01:31:08.889Z,76.01
2022-11-10T01:33:36.053Z,77.23
2022-11-10T01:36:02.724Z,77.72
2022-11-10T01:38:30.450Z,79.18
2022-11-10T01:40:57.412Z,79.42
2022-11-10T01:43:25.023Z,78.67
2022-11-10T01:45:51.740Z,77.89
2022-11-10T01:48:27.130Z,76.51
2022-11-10T01:50:54.962Z,77.48
2022-11-10T01:53:24.941Z,76.49
2022-11-10T01:55:51.792Z,76.40
2022-11-10T01:58:24.920Z,76.19
2022-11-10T02:00:51.786Z,75.73
2022-11-10T02:03:37.352Z,75.76
2022-11-10T02:06:04.698Z,75.67
2022-11-10T02:08:31.362Z,75.80
2022-11-10T02:10:57.982Z,75.09
2022-11-10T02:13:25.349Z,76.57
2022-11-10T02:15:52.031Z,75.40
2022-11-10T02:18:18.770Z,75.76
2022-11-10T02:20:46.040Z,75.35
2022-11-10T02:23:13.440Z,75.64
2022-11-10T02:25:40.121Z,75.00
2022-11-10T02:28:06.804Z,74.77
2022-11-10T02:30:33.450Z,75.17
2022-11-10T02:33:00.100Z,75.08
2022-11-10T02:35:26.916Z,74.63
2022-11-10T02:37:53.632Z,74.26
2022-11-10T02:40:20.323Z,74.40
2022-11-10T02:42:46.959Z,74.52
2022-11-10T02:45:13.679Z,74.76
2022-11-10T02:47:40.358Z,75.01
2022-11-10T02:50:07.204Z,75.33
2022-11-10T02:52:34.012Z,77.84
2022-11-10T02:55:00.690Z,76.68
2022-11-10T02:57:27.401Z,80.35
2022-11-10T02:59:54.086Z,79.78
2022-11-10T03:02:21.731Z,81.63
2022-11-10T03:04:48.391Z,79.87
2022-11-10T03:07:15.066Z,78.38
2022-11-10T03:09:42.040Z,78.67
2022-11-10T03:12:08.694Z,77.48
2022-11-10T03:14:35.331Z,78.11
2022-11-10T03:17:01.993Z,81.82
2022-11-10T03:19:28.652Z,86.68
2022-11-10T03:21:55.390Z,83.82
2022-11-10T03:24:22.081Z,81.64
2022-11-10T03:26:48.770Z,81.38
2022-11-10T03:29:15.742Z,79.88
2022-11-10T03:31:42.392Z,80.54
2022-11-10T03:34:09.111Z,80.19
2022-11-10T03:36:35.871Z,78.36
2022-11-10T03:39:02.541Z,78.68
2022-11-10T03:41:29.284Z,78.17
2022-11-10T03:43:56.012Z,78.47
2022-11-10T03:46:22.700Z,78.90
2022-11-10T03:48:53.497Z,77.50
2022-11-10T03:51:20.626Z,79.82
2022-11-10T03:53:47.401Z,78.34
2022-11-10T03:56:14.140Z,79.48
2022-11-10T03:58:41.152Z,81.65
2022-11-10T04:01:08.492Z,79.91
2022-11-10T04:03:35.158Z,81.71
2022-11-10T04:06:20.510Z,83.31
2022-11-10T04:08:59.653Z,81.53
2022-11-10T04:11:46.178Z,84.00
2022-11-10T04:14:32.163Z,82.29
2022-11-10T04:16:59.090Z,81.52
2022-11-10T04:19:26.150Z,80.56
2022-11-10T04:21:53.200Z,82.85
2022-11-10T04:24:20.476Z,82.13
2022-11-10T04:26:49.054Z,82.34
2022-11-10T04:29:18.508Z,82.83
2022-11-10T04:31:45.671Z,85.85
2022-11-10T04:34:14.442Z,82.31
2022-11-10T04:36:42.493Z,83.30
2022-11-10T04:39:10.004Z,83.81
2022-11-10T04:41:36.801Z,81.68
2022-11-10T04:44:03.559Z,80.39
2022-11-10T04:46:31.481Z,79.43
2022-11-10T04:48:58.602Z,79.64
2022-11-10T04:51:27.166Z,79.45
2022-11-10T04:53:54.115Z,78.78
2022-11-10T04:56:22.788Z,77.33
2022-11-10T04:58:49.961Z,77.85
2022-11-10T05:01:18.844Z,77.10
2022-11-10T05:03:46.170Z,77.96
2022-11-10T05:06:13.121Z,81.03
2022-11-10T05:08:41.001Z,79.25
2022-11-10T05:11:08.315Z,78.43
2022-11-10T05:13:35.061Z,77.19
2022-11-10T05:16:02.191Z,76.46
2022-11-10T05:18:28.973Z,76.70
2022-11-10T05:20:55.720Z,78.25
2022-11-10T05:23:42.032Z,80.15
2022-11-10T05:26:10.412Z,81.69
2022-11-10T05:28:37.940Z,78.60
2022-11-10T05:31:05.040Z,78.86
2022-11-10T05:33:31.830Z,77.83
2022-11-10T05:35:58.672Z,77.43
2022-11-10T05:38:25.674Z,78.84
2022-11-10T05:40:52.530Z,77.72
2022-11-10T05:43:19.506Z,78.69
2022-11-10T05:45:46.399Z,78.15
2022-11-10T05:48:13.235Z,78.92
2022-11-10T05:50:40.031Z,78.55
2022-11-10T05:53:07.010Z,77.18
2022-11-10T05:55:33.816Z,77.98
2022-11-10T05:58:00.661Z,79.69
2022-11-10T06:00:28.717Z,79.01
2022-11-10T06:03:01.201Z,76.56
2022-11-10T06:05:31.274Z,75.55
2022-11-10T06:07:58.762Z,74.84
2022-11-10T06:10:25.534Z,75.29
2022-11-10T06:12:52.859Z,74.69
2022-11-10T06:15:20.055Z,74.83
2022-11-10T06:17:46.879Z,74.67
2022-11-10T06:20:15.051Z,72.99
2022-11-10T06:22:41.984Z,73.04
2022-11-10T06:25:09.301Z,74.27
2022-11-10T06:27:36.330Z,73.24
2022-11-10T06:30:04.542Z,73.22
2022-11-10T06:32:33.870Z,72.58
2022-11-10T06:35:01.072Z,72.18
2022-11-10T06:37:28.072Z,71.40
2022-11-10T06:39:54.934Z,72.00
2022-11-10T06:42:21.800Z,71.38
2022-11-10T06:44:50.437Z,71.42
2022-11-10T06:47:17.312Z,71.07
2022-11-10T06:49:44.320Z,70.96
2022-11-10T06:52:11.220Z,70.49
2022-11-10T06:54:38.060Z,70.33
2022-11-10T06:57:04.968Z,69.93
2022-11-10T06:59:31.911Z,70.56
2022-11-10T07:01:59.265Z,70.53
2022-11-10T07:04:26.180Z,70.72
2022-11-10T07:06:55.380Z,70.32
2022-11-10T07:09:26.169Z,70.95
2022-11-10T07:11:55.383Z,69.65
2022-11-10T07:14:36.710Z,70.39
2022-11-10T07:17:03.570Z,70.47
2022-11-10T07:19:32.822Z,69.30
2022-11-10T07:21:59.602Z,70.69
2022-11-10T07:24:26.851Z,70.38
2022-11-10T07:26:53.704Z,69.70
2022-11-10T07:29:26.272Z,68.62
2022-11-10T07:31:53.081Z,66.99
2022-11-10T07:34:20.049Z,68.80
2022-11-10T07:36:47.592Z,67.83
2022-11-10T07:39:14.522Z,68.81
2022-11-10T07:41:41.311Z,66.82
2022-11-10T07:44:08.159Z,68.59
2022-11-10T07:46:37.683Z,67.60
2022-11-10T07:49:04.531Z,66.35
2022-11-10T07:51:34.424Z,67.09
2022-11-10T07:54:01.441Z,67.23
2022-11-10T07:56:28.590Z,66.36
2022-11-10T07:58:56.061Z,68.75
2022-11-10T08:01:22.892Z,66.98
2022-11-10T08:03:49.926Z,65.67
2022-11-10T08:06:16.777Z,67.37
2022-11-10T08:08:43.627Z,66.41
2022-11-10T08:11:10.530Z,65.86
2022-11-10T08:13:37.631Z,65.61
2022-11-10T08:16:07.340Z,66.11
2022-11-10T08:18:37.204Z,66.32
2022-11-10T08:21:10.207Z,65.73
2022-11-10T08:23:40.102Z,66.73
2022-11-10T08:26:07.284Z,67.72
2022-11-10T08:28:37.335Z,66.66
2022-11-10T08:31:09.496Z,66.66
2022-11-10T08:33:36.493Z,66.88
2022-11-10T08:36:04.192Z,66.76
2022-11-10T08:38:32.440Z,69.07
2022-11-10T08:40:59.923Z,67.91
2022-11-10T08:43:30.212Z,67.73
2022-11-10T08:46:02.631Z,68.28
2022-11-10T08:48:29.473Z,67.39
2022-11-10T08:50:59.472Z,67.17
2022-11-10T08:53:31.780Z,68.42
2022-11-10T08:55:59.790Z,68.57
2022-11-10T08:58:52.798Z,67.45
2022-11-10T09:01:22.095Z,66.18
2022-11-10T09:03:49.314Z,66.18
2022-11-10T09:06:26.176Z,66.26
2022-11-10T09:09:00.444Z,64.97
2022-11-10T09:11:29.934Z,64.27
2022-11-10T09:13:59.902Z,62.92
2022-11-10T09:16:29.646Z,62.54
2022-11-10T09:18:56.804Z,62.72
2022-11-10T09:21:23.620Z,62.62
2022-11-10T09:23:50.648Z,62.29
2022-11-10T09:26:19.960Z,64.67
2022-11-10T09:28:47.022Z,62.10
2022-11-10T09:31:13.887Z,64.58
2022-11-10T09:33:40.790Z,63.94
2022-11-10T09:36:07.777Z,64.39
2022-11-10T09:38:35.478Z,63.91
2022-11-10T09:41:04.759Z,64.26
2022-11-10T09:43:40.890Z,63.21
2022-11-10T09:46:16.985Z,63.38
2022-11-10T09:48:55.482Z,64.22
2022-11-10T09:51:22.310Z,63.04
2022-11-10T09:53:56.342Z,63.43
2022-11-10T09:56:30.818Z,65.75
2022-11-10T09:59:00.781Z,64.07
2022-11-10T10:01:33.837Z,63.37
2022-11-10T10:04:20.912Z,64.43
2022-11-10T10:07:11.233Z,63.38
2022-11-10T10:09:42.450Z,62.83
2022-11-10T10:12:27.823Z,61.38
2022-11-10T10:15:00.779Z,61.57
2022-11-10T10:17:40.987Z,61.65
2022-11-10T10:20:11.027Z,60.49
2022-11-10T10:22:46.394Z,60.17
2022-11-10T10:25:22.194Z,59.06
2022-11-10T10:27:51.743Z,59.10
2022-11-10T10:30:19.889Z,58.86
2022-11-10T10:32:46.912Z,58.77
2022-11-10T10:35:24.815Z,58.73
2022-11-10T10:37:57.330Z,57.88
2022-11-10T10:40:25.126Z,58.52
2022-11-10T10:42:52.331Z,58.69
2022-11-10T10:45:32.798Z,59.35
2022-11-10T10:48:01.573Z,59.01
2022-11-10T10:50:39.730Z,58.96
2022-11-10T10:53:13.150Z,59.88
2022-11-10T10:55:45.508Z,58.45
2022-11-10T10:58:25.125Z,59.12
2022-11-10T11:00:58.360Z,60.90
2022-11-10T11:03:30.414Z,59.95
2022-11-10T11:06:07.931Z,60.32
2022-11-10T11:08:38.062Z,60.46
2022-11-10T11:11:09.865Z,59.91
2022-11-10T11:13:37.061Z,61.75
2022-11-10T11:16:07.965Z,60.29
2022-11-10T11:18:37.001Z,60.29
2022-11-10T11:21:21.320Z,60.70
2022-11-10T11:23:55.432Z,61.52
2022-11-10T11:26:46.124Z,60.74
2022-11-10T11:30:03.337Z,60.99
2022-11-10T11:32:36.871Z,60.50
2022-11-10T11:35:41.656Z,59.33
2022-11-10T11:38:12.125Z,59.85
2022-11-10T11:41:14.104Z,61.45
2022-11-10T11:43:41.137Z,61.13
2022-11-10T11:46:23.185Z,61.89
2022-11-10T11:49:10.697Z,60.41
2022-11-10T11:51:37.592Z,60.68
2022-11-10T11:54:22.706Z,61.89
2022-11-10T11:56:50.346Z,63.93
2022-11-10T11:59:39.225Z,63.21
2022-11-10T12:02:33.589Z,62.06
2022-11-10T12:05:21.935Z,62.60
2022-11-10T12:08:03.465Z,63.37
2022-11-10T12:10:46.386Z,61.96
2022-11-10T12:13:13.102Z,62.84
2022-11-10T12:15:43.125Z,62.35
2022-11-10T12:18:26.967Z,61.63
2022-11-10T12:21:12.825Z,61.17
2022-11-10T12:24:09.905Z,62.84
2022-11-10T12:26:46.899Z,63.00
2022-11-10T12:29:13.746Z,62.41
2022-11-10T12:31:41.644Z,61.75
2022-11-10T12:34:33.445Z,64.17
2022-11-10T12:37:02.085Z,62.69
2022-11-10T12:39:52.255Z,63.77
2022-11-10T12:42:21.985Z,65.67
2022-11-10T12:44:55.134Z,63.92
2022-11-10T12:47:23.459Z,68.06
2022-11-10T12:50:14.084Z,66.47
2022-11-10T12:52:51.990Z,66.23
2022-11-10T12:55:20.256Z,66.61
2022-11-10T12:57:47.226Z,65.09
2022-11-10T13:00:25.200Z,65.63
2022-11-10T13:02:55.986Z,64.72
2022-11-10T13:05:29.055Z,66.00
2022-11-10T13:08:07.394Z,65.99
2022-11-10T13:10:34.373Z,67.01
2022-11-10T13:13:03.953Z,67.97
2022-11-10T13:15:36.914Z,70.70
2022-11-10T13:18:14.751Z,70.63
2022-11-10T13:20:43.843Z,70.31
2022-11-10T13:23:23.487Z,70.82
2022-11-10T13:25:55.125Z,68.59
2022-11-10T13:28:40.480Z,67.75
2022-11-10T13:31:25.807Z,68.86
2022-11-10T13:34:09.475Z,68.61
2022-11-10T13:36:38.063Z,67.92
2022-11-10T13:39:34.344Z,67.74
2022-11-10T13:42:03.566Z,67.56
2022-11-10T13:44:34.774Z,66.86
2022-11-10T13:47:11.755Z,67.07
2022-11-10T13:49:38.445Z,67.99
2022-11-10T13:52:10.727Z,66.53
2022-11-10T13:54:56.986Z,66.42
2022-11-10T13:57:29.568Z,66.58
2022-11-10T13:59:58.075Z,67.42
2022-11-10T14:02:34.089Z,66.42
2022-11-10T14:05:01.624Z,66.55
2022-11-10T14:07:30.509Z,65.82
2022-11-10T14:10:03.987Z,66.70
2022-11-10T14:12:44.178Z,66.42
2022-11-10T14:15:17.568Z,66.17
2022-11-10T14:17:49.197Z,66.07
2022-11-10T14:20:25.280Z,66.04
2022-11-10T14:22:52.756Z,65.63
2022-11-10T14:25:20.008Z,65.79
2022-11-10T14:27:48.114Z,65.96
2022-11-10T14:30:29.089Z,65.27
2022-11-10T14:32:57.413Z,65.00
2022-11-10T14:35:26.167Z,65.35
2022-11-10T14:37:57.422Z,67.12
2022-11-10T14:40:24.171Z,67.56
2022-11-10T14:42:51.207Z,67.67
2022-11-10T14:45:19.728Z,67.42
2022-11-10T14:47:54.321Z,67.22
2022-11-10T14:50:22.768Z,66.47
2022-11-10T14:52:52.461Z,66.39
2022-11-10T14:55:24.595Z,66.01
2022-11-10T14:58:10.524Z,66.28
2022-11-10T15:00:38.878Z,66.10
2022-11-10T15:03:06.630Z,66.84
2022-11-10T15:05:33.891Z,66.21
2022-11-10T15:08:01.085Z,66.25
2022-11-10T15:10:42.122Z,67.52
2022-11-10T15:13:11.991Z,65.95
2022-11-10T15:15:39.322Z,67.41
2022-11-10T15:18:06.322Z,66.21
2022-11-10T15:20:40.457Z,66.62
2022-11-10T15:23:20.294Z,67.10
2022-11-10T15:25:52.834Z,67.74
2022-11-10T15:28:26.889Z,67.31
2022-11-10T15:31:04.321Z,67.04
2022-11-10T15:33:32.881Z,66.89
2022-11-10T15:36:35.115Z,66.80
2022-11-10T15:39:03.442Z,66.71
2022-11-10T15:41:31.269Z,66.77
2022-11-10T15:43:58.023Z,66.46
2022-11-10T15:46:26.334Z,66.41
2022-11-10T15:48:53.396Z,66.49
2022-11-10T15:51:25.982Z,66.04
2022-11-10T15:53:54.509Z,66.04
2022-11-10T15:56:23.864Z,65.94
2022-11-10T15:58:51.900Z,65.80
2022-11-10T16:01:18.709Z,65.81
2022-11-10T16:03:45.914Z,66.01
2022-11-10T16:06:13.843Z,66.31
2022-11-10T16:08:40.751Z,66.44
2022-11-10T16:11:13.965Z,66.24
2022-11-10T16:13:40.693Z,66.73
2022-11-10T16:16:07.698Z,66.07
2022-11-10T16:18:34.694Z,66.41
2022-11-10T16:21:01.504Z,66.60
2022-11-10T16:23:28.428Z,66.24
2022-11-10T16:25:56.454Z,67.34
2022-11-10T16:28:27.443Z,67.03
2022-11-10T16:30:54.841Z,66.81
2022-11-10T16:33:22.934Z,66.20
2022-11-10T16:35:53.542Z,69.81
2022-11-10T16:38:23.726Z,70.04
2022-11-10T16:40:55.110Z,68.52
2022-11-10T16:43:22.400Z,68.30
2022-11-10T16:45:50.353Z,67.18
2022-11-10T16:48:19.522Z,68.86
2022-11-10T16:50:46.846Z,68.92
2022-11-10T16:53:15.368Z,68.63
2022-11-10T16:55:42.214Z,68.49
2022-11-10T16:58:08.915Z,67.48
2022-11-10T17:00:36.137Z,68.09
2022-11-10T17:03:06.697Z,67.85
2022-11-10T17:05:34.217Z,67.70
2022-11-10T17:08:01.451Z,67.65
2022-11-10T17:10:28.171Z,67.16
2022-11-10T17:12:55.528Z,67.54
2022-11-10T17:15:22.592Z,67.33
2022-11-10T17:17:51.821Z,68.32
2022-11-10T17:20:20.590Z,69.66
2022-11-10T17:22:47.506Z,68.90
2022-11-10T17:25:18.295Z,69.69
2022-11-10T17:27:45.067Z,70.36
2022-11-10T17:30:13.376Z,68.97
2022-11-10T17:33:03.577Z,68.17
2022-11-10T17:35:27.101Z,67.73
2022-11-10T17:37:55.639Z,67.58
2022-11-10T17:40:23.368Z,67.54
2022-11-10T17:42:50.367Z,66.93
2022-11-10T17:45:27.340Z,66.31
2022-11-10T17:47:54.110Z,66.24
2022-11-10T17:50:21.814Z,66.76
2022-11-10T17:52:49.295Z,67.17
2022-11-10T17:55:23.431Z,66.50
2022-11-10T17:57:50.365Z,66.44
2022-11-10T18:00:18.301Z,67.55
2022-11-10T18:02:48.845Z,67.00
2022-11-10T18:05:18.579Z,68.92
2022-11-10T18:07:45.513Z,66.40
2022-11-10T18:10:13.793Z,66.45
2022-11-10T18:12:41.053Z,67.33
2022-11-10T18:15:08.558Z,67.81
2022-11-10T18:17:35.300Z,69.11
2022-11-10T18:20:01.926Z,69.50
2022-11-10T18:22:28.803Z,69.28
2022-11-10T18:24:55.524Z,69.24
2022-11-10T18:27:22.263Z,68.88
2022-11-10T18:29:49.103Z,69.27
2022-11-10T18:32:15.819Z,71.63
2022-11-10T18:34:42.569Z,69.84
2022-11-10T18:37:09.355Z,70.74
2022-11-10T18:39:36.217Z,69.28
2022-11-10T18:42:03.146Z,70.86
2022-11-10T18:44:30.664Z,69.60
2022-11-10T18:46:57.464Z,69.75
2022-11-10T18:49:24.175Z,68.83
2022-11-10T18:51:50.991Z,68.97
2022-11-10T18:54:17.983Z,69.44
2022-11-10T18:56:44.671Z,70.16
2022-11-10T18:59:11.435Z,70.01
2022-11-10T19:01:39.047Z,69.30
2022-11-10T19:04:05.812Z,71.07
2022-11-10T19:06:32.895Z,70.08
2022-11-10T19:08:59.810Z,69.44
2022-11-10T19:11:26.989Z,67.87
2022-11-10T19:13:54.127Z,68.78
2022-11-10T19:16:20.961Z,69.33
2022-11-10T19:18:47.670Z,73.15
2022-11-10T19:21:18.617Z,72.02
2022-11-10T19:23:45.578Z,74.43
2022-11-10T19:26:21.922Z,78.37
2022-11-10T19:28:49.429Z,76.22
2022-11-10T19:31:17.653Z,74.31
2022-11-10T19:33:46.614Z,73.43
2022-11-10T19:36:14.364Z,74.80
2022-11-10T19:38:41.288Z,73.87
2022-11-10T19:41:09.419Z,72.23
2022-11-10T19:43:36.412Z,72.71
2022-11-10T19:46:04.240Z,74.40
2022-11-10T19:48:34.382Z,73.78
2022-11-10T19:51:02.070Z,72.93
2022-11-10T19:53:28.839Z,72.34
2022-11-10T19:56:02.871Z,71.83
2022-11-10T19:58:30.345Z,71.25
2022-11-10T20:00:57.368Z,71.12
2022-11-10T20:03:24.214Z,70.81
2022-11-10T20:05:58.233Z,71.25
2022-11-10T20:08:25.455Z,70.87
2022-11-10T20:10:52.266Z,71.01
2022-11-10T20:13:19.009Z,72.56
2022-11-10T20:15:45.714Z,71.43
2022-11-10T20:18:12.495Z,70.97
2022-11-10T20:20:39.158Z,69.27
2022-11-10T20:23:06.584Z,70.42
2022-11-10T20:25:34.340Z,72.42
2022-11-10T20:28:06.625Z,74.25
2022-11-10T20:30:34.568Z,78.64
2022-11-10T20:33:01.874Z,74.47
2022-11-10T20:35:29.209Z,73.92
2022-11-10T20:37:55.967Z,75.47
2022-11-10T20:40:43.385Z,74.00
2022-11-10T20:43:10.045Z,73.34
2022-11-10T20:45:38.779Z,74.15
2022-11-10T20:48:05.513Z,73.70
2022-11-10T20:50:32.279Z,73.80
2022-11-10T20:52:59.075Z,72.84
2022-11-10T20:55:51.646Z,76.84
2022-11-10T20:58:12.457Z,77.37
2022-11-10T21:00:42.950Z,75.02
2022-11-10T21:03:09.837Z,73.80
2022-11-10T21:05:36.527Z,73.18
2022-11-10T21:08:03.186Z,72.18
2022-11-10T21:10:29.959Z,71.17
2022-11-10T21:12:56.683Z,71.69
2022-11-10T21:15:23.367Z,71.29
2022-11-10T21:17:50.071Z,70.54
2022-11-10T21:20:16.805Z,71.75
2022-11-10T21:22:43.708Z,70.50
2022-11-10T21:25:10.457Z,70.48
2022-11-10T21:27:37.191Z,71.01
2022-11-10T21:30:06.834Z,70.32
2022-11-10T21:32:35.678Z,69.75
2022-11-10T21:35:02.327Z,69.18
2022-11-10T21:37:29.300Z,68.63
2022-11-10T21:39:56.608Z,68.22
2022-11-10T21:42:23.633Z,67.95
2022-11-10T21:44:50.316Z,67.81
2022-11-10T21:47:17.012Z,67.63
2022-11-10T21:49:43.722Z,68.15
2022-11-10T21:52:10.545Z,67.98
2022-11-10T21:54:37.200Z,67.90
2022-11-10T21:57:03.945Z,67.93
2022-11-10T21:59:30.617Z,69.85
2022-11-10T22:01:57.398Z,68.20
2022-11-10T22:04:24.176Z,67.40
2022-11-10T22:07:09.742Z,69.85
2022-11-10T22:09:55.059Z,67.23
2022-11-10T22:12:40.227Z,67.41
2022-11-10T22:15:31.014Z,67.68
2022-11-10T22:18:16.054Z,67.52
2022-11-10T22:20:42.713Z,67.75
2022-11-10T22:23:09.540Z,67.05
2022-11-10T22:25:36.253Z,69.12
2022-11-10T22:28:03.045Z,67.70
2022-11-10T22:30:30.103Z,68.20
2022-11-10T22:32:56.754Z,68.09
2022-11-10T22:35:42.157Z,67.72
2022-11-10T22:38:08.868Z,68.05
2022-11-10T22:40:54.463Z,69.54
2022-11-10T22:43:39.913Z,68.86
2022-11-10T22:46:06.661Z,70.18
2022-11-10T22:48:33.656Z,68.68
2022-11-10T22:51:00.799Z,68.46
2022-11-10T22:53:27.778Z,68.15
2022-11-10T22:55:58.856Z,67.82
2022-11-10T22:58:25.648Z,67.40
2022-11-10T23:00:52.335Z,68.37
2022-11-10T23:03:18.990Z,69.02
2022-11-10T23:05:54.962Z,68.59
2022-11-10T23:08:23.070Z,69.23
2022-11-10T23:10:49.763Z,68.41
2022-11-10T23:13:16.701Z,68.18
2022-11-10T23:15:44.770Z,68.31
2022-11-10T23:18:11.576Z,68.80
2022-11-10T23:20:38.327Z,67.92
2022-11-10T23:23:05.009Z,68.57
2022-11-10T23:25:31.851Z,67.49
2022-11-10T23:27:58.566Z,67.37
2022-11-10T23:30:25.263Z,68.18
2022-11-10T23:32:53.985Z,66.64
2022-11-10T23:35:20.678Z,67.50
2022-11-10T23:37:47.371Z,67.12
2022-11-10T23:40:14.158Z,66.77
2022-11-10T23:42:40.820Z,67.27
2022-11-10T23:45:07.807Z,66.52
2022-11-10T23:47:34.574Z,66.22
2022-11-10T23:50:01.184Z,66.13
2022-11-10T23:52:27.890Z,66.19
2022-11-10T23:54:54.663Z,65.84
2022-11-10T23:57:21.282Z,65.95
2022-11-10T23:59:47.980Z,65.49
